sensor_id;sensor_type;location;lat;lon;timestamp;pressure;altitude;pressure_sealevel;temperature;humidity
58471;BME280;44258;51.288;12.068;2024-03-23T00:54:25;99720.31;;;12.36;72.64
58471;BME280;44258;51.288;12.068;2024-03-23T00:56:55;99704.78;;;12.27;72.97
58471;BME280;44258;51.288;12.068;2024-03-23T00:59:21;99691.84;;;12.32;72.37
58471;BME280;44258;51.288;12.068;2024-03-23T01:01:56;99706.03;;;12.47;71.92
58471;BME280;44258;51.288;12.068;2024-03-23T01:04:23;99699.59;;;12.37;71.78
58471;BME280;44258;51.288;12.068;2024-03-23T01:06:49;99693.09;;;12.39;71.97
58471;BME280;44258;51.288;12.068;2024-03-23T01:09:15;99690.50;;;12.50;71.42
58471;BME280;44258;51.288;12.068;2024-03-23T01:11:42;99690.66;;;12.60;70.76
58471;BME280;44258;51.288;12.068;2024-03-23T01:14:07;99673.97;;;12.55;70.23
58471;BME280;44258;51.288;12.068;2024-03-23T01:16:34;99668.44;;;12.32;71.18
58471;BME280;44258;51.288;12.068;2024-03-23T01:18:59;99655.97;;;12.19;71.71
58471;BME280;44258;51.288;12.068;2024-03-23T01:21:28;99648.91;;;11.92;72.60
58471;BME280;44258;51.288;12.068;2024-03-23T01:23:53;99649.66;;;11.94;72.94
58471;BME280;44258;51.288;12.068;2024-03-23T01:26:20;99648.50;;;11.85;72.86
58471;BME280;44258;51.288;12.068;2024-03-23T01:28:45;99650.06;;;11.51;74.10
58471;BME280;44258;51.288;12.068;2024-03-23T01:31:12;99658.09;;;11.77;73.16
58471;BME280;44258;51.288;12.068;2024-03-23T01:33:37;99652.28;;;11.70;72.71
58471;BME280;44258;51.288;12.068;2024-03-23T01:36:04;99650.81;;;11.53;73.48
58471;BME280;44258;51.288;12.068;2024-03-23T01:38:31;99665.06;;;11.42;74.47
58471;BME280;44258;51.288;12.068;2024-03-23T01:40:58;99666.19;;;11.64;73.54
58471;BME280;44258;51.288;12.068;2024-03-23T01:43:24;99656.97;;;11.42;74.50
58471;BME280;44258;51.288;12.068;2024-03-23T01:45:51;99670.50;;;11.15;76.01
58471;BME280;44258;51.288;12.068;2024-03-23T01:48:19;99659.88;;;11.26;75.52
58471;BME280;44258;51.288;12.068;2024-03-23T01:50:49;99653.72;;;11.37;74.81
58471;BME280;44258;51.288;12.068;2024-03-23T01:53:18;99648.31;;;11.11;75.75
58471;BME280;44258;51.288;12.068;2024-03-23T01:55:49;99634.56;;;11.29;75.08
58471;BME280;44258;51.288;12.068;2024-03-23T01:58:15;99632.19;;;11.50;73.94
58471;BME280;44258;51.288;12.068;2024-03-23T02:00:42;99628.00;;;11.59;73.55
58471;BME280;44258;51.288;12.068;2024-03-23T02:05:50;99616.16;;;11.35;74.63
58471;BME280;44258;51.288;12.068;2024-03-23T02:08:17;99613.13;;;11.53;74.22
58471;BME280;44258;51.288;12.068;2024-03-23T02:10:44;99611.72;;;11.47;74.25
58471;BME280;44258;51.288;12.068;2024-03-23T02:13:23;99611.19;;;11.29;75.11
58471;BME280;44258;51.288;12.068;2024-03-23T02:15:50;99609.31;;;11.68;73.38
58471;BME280;44258;51.288;12.068;2024-03-23T02:18:16;99617.19;;;11.71;73.04
58471;BME280;44258;51.288;12.068;2024-03-23T02:20:42;99604.16;;;12.02;71.52
58471;BME280;44258;51.288;12.068;2024-03-23T02:23:15;99602.03;;;11.94;71.77
58471;BME280;44258;51.288;12.068;2024-03-23T02:25:41;99599.47;;;11.80;72.58
58471;BME280;44258;51.288;12.068;2024-03-23T02:28:10;99606.50;;;11.70;73.08
58471;BME280;44258;51.288;12.068;2024-03-23T02:30:38;99607.41;;;11.94;72.01
58471;BME280;44258;51.288;12.068;2024-03-23T02:33:04;99598.88;;;11.64;73.39
58471;BME280;44258;51.288;12.068;2024-03-23T02:35:32;99600.63;;;11.65;73.38
58471;BME280;44258;51.288;12.068;2024-03-23T02:37:58;99610.41;;;11.66;74.00
58471;BME280;44258;51.288;12.068;2024-03-23T02:40:29;99593.66;;;11.86;72.58
58471;BME280;44258;51.288;12.068;2024-03-23T02:42:55;99584.91;;;11.95;72.30
58471;BME280;44258;51.288;12.068;2024-03-23T02:45:25;99585.13;;;11.55;73.78
58471;BME280;44258;51.288;12.068;2024-03-23T02:47:52;99585.13;;;11.55;73.98
58471;BME280;44258;51.288;12.068;2024-03-23T02:50:21;99559.34;;;11.64;73.50
58471;BME280;44258;51.288;12.068;2024-03-23T02:52:47;99559.16;;;11.54;73.96
58471;BME280;44258;51.288;12.068;2024-03-23T02:55:14;99567.19;;;11.30;75.56
58471;BME280;44258;51.288;12.068;2024-03-23T02:57:42;99568.88;;;11.44;75.12
58471;BME280;44258;51.288;12.068;2024-03-23T03:00:09;99565.91;;;11.60;73.84
58471;BME280;44258;51.288;12.068;2024-03-23T03:02:36;99559.91;;;11.57;74.39
58471;BME280;44258;51.288;12.068;2024-03-23T03:05:06;99548.94;;;11.84;73.10
58471;BME280;44258;51.288;12.068;2024-03-23T03:07:32;99538.09;;;11.72;73.34
58471;BME280;44258;51.288;12.068;2024-03-23T03:09:59;99531.44;;;11.65;73.51
58471;BME280;44258;51.288;12.068;2024-03-23T03:12:24;99535.53;;;11.71;73.83
58471;BME280;44258;51.288;12.068;2024-03-23T03:14:52;99537.06;;;11.86;73.39
58471;BME280;44258;51.288;12.068;2024-03-23T03:17:18;99524.47;;;11.87;73.08
58471;BME280;44258;51.288;12.068;2024-03-23T03:19:44;99493.69;;;11.78;73.39
58471;BME280;44258;51.288;12.068;2024-03-23T03:22:10;99499.34;;;11.86;72.99
58471;BME280;44258;51.288;12.068;2024-03-23T03:24:37;99499.06;;;11.78;73.33
58471;BME280;44258;51.288;12.068;2024-03-23T03:27:02;99500.38;;;11.72;73.42
58471;BME280;44258;51.288;12.068;2024-03-23T03:29:32;99503.78;;;11.87;72.52
58471;BME280;44258;51.288;12.068;2024-03-23T03:32:02;99484.38;;;11.58;74.14
58471;BME280;44258;51.288;12.068;2024-03-23T03:34:35;99500.84;;;11.29;75.81
58471;BME280;44258;51.288;12.068;2024-03-23T03:37:04;99508.06;;;11.66;74.26
58471;BME280;44258;51.288;12.068;2024-03-23T03:39:33;99507.22;;;11.89;73.33
58471;BME280;44258;51.288;12.068;2024-03-23T03:41:58;99510.94;;;12.00;72.68
58471;BME280;44258;51.288;12.068;2024-03-23T03:44:25;99519.25;;;12.09;72.43
58471;BME280;44258;51.288;12.068;2024-03-23T03:46:52;99520.72;;;12.01;72.19
58471;BME280;44258;51.288;12.068;2024-03-23T03:49:22;99510.50;;;12.30;70.93
58471;BME280;44258;51.288;12.068;2024-03-23T03:51:51;99504.00;;;12.44;70.39
58471;BME280;44258;51.288;12.068;2024-03-23T03:54:18;99492.63;;;12.51;70.23
58471;BME280;44258;51.288;12.068;2024-03-23T03:56:44;99498.19;;;12.61;69.98
58471;BME280;44258;51.288;12.068;2024-03-23T03:59:10;99492.09;;;12.70;69.56
58471;BME280;44258;51.288;12.068;2024-03-23T04:01:36;99478.34;;;12.73;68.98
58471;BME280;44258;51.288;12.068;2024-03-23T04:04:03;99447.69;;;12.63;68.54
58471;BME280;44258;51.288;12.068;2024-03-23T04:06:31;99437.56;;;12.31;69.00
58471;BME280;44258;51.288;12.068;2024-03-23T04:08:58;99430.13;;;12.46;68.61
58471;BME280;44258;51.288;12.068;2024-03-23T04:11:24;99419.22;;;12.37;69.36
58471;BME280;44258;51.288;12.068;2024-03-23T04:13:50;99411.34;;;12.22;70.13
58471;BME280;44258;51.288;12.068;2024-03-23T04:16:24;99417.34;;;11.66;72.69
58471;BME280;44258;51.288;12.068;2024-03-23T04:18:51;99421.06;;;11.77;72.77
58471;BME280;44258;51.288;12.068;2024-03-23T04:21:16;99413.41;;;11.83;72.27
58471;BME280;44258;51.288;12.068;2024-03-23T04:23:44;99414.16;;;11.61;72.88
58471;BME280;44258;51.288;12.068;2024-03-23T04:26:10;99401.84;;;11.70;72.65
58471;BME280;44258;51.288;12.068;2024-03-23T04:28:37;99392.94;;;11.81;72.32
58471;BME280;44258;51.288;12.068;2024-03-23T04:31:03;99395.75;;;11.79;72.08
58471;BME280;44258;51.288;12.068;2024-03-23T04:33:33;99385.75;;;11.57;73.36
58471;BME280;44258;51.288;12.068;2024-03-23T04:35:59;99389.31;;;11.33;74.67
58471;BME280;44258;51.288;12.068;2024-03-23T04:38:26;99385.13;;;11.53;74.18
58471;BME280;44258;51.288;12.068;2024-03-23T04:40:55;99402.31;;;11.64;73.48
58471;BME280;44258;51.288;12.068;2024-03-23T04:43:22;99397.19;;;11.72;73.55
58471;BME280;44258;51.288;12.068;2024-03-23T04:45:48;99388.38;;;11.70;73.25
58471;BME280;44258;51.288;12.068;2024-03-23T04:48:15;99377.16;;;11.52;73.59
58471;BME280;44258;51.288;12.068;2024-03-23T04:50:42;99375.53;;;11.38;74.53
58471;BME280;44258;51.288;12.068;2024-03-23T04:53:10;99375.91;;;11.45;74.35
58471;BME280;44258;51.288;12.068;2024-03-23T04:55:37;99340.34;;;11.52;73.70
58471;BME280;44258;51.288;12.068;2024-03-23T04:58:05;99348.63;;;11.38;74.35
58471;BME280;44258;51.288;12.068;2024-03-23T05:00:31;99306.69;;;11.23;75.38
58471;BME280;44258;51.288;12.068;2024-03-23T05:03:08;99301.66;;;11.18;75.40
58471;BME280;44258;51.288;12.068;2024-03-23T05:05:40;99313.34;;;11.06;75.87
58471;BME280;44258;51.288;12.068;2024-03-23T05:08:07;99325.06;;;11.05;76.30
58471;BME280;44258;51.288;12.068;2024-03-23T05:10:33;99330.09;;;11.09;76.12
58471;BME280;44258;51.288;12.068;2024-03-23T05:13:02;99322.25;;;11.30;75.33
58471;BME280;44258;51.288;12.068;2024-03-23T05:15:29;99328.84;;;11.02;76.19
58471;BME280;44258;51.288;12.068;2024-03-23T05:17:56;99319.03;;;11.01;76.97
58471;BME280;44258;51.288;12.068;2024-03-23T05:20:21;99329.13;;;11.34;75.34
58471;BME280;44258;51.288;12.068;2024-03-23T05:22:48;99332.47;;;11.49;74.75
58471;BME280;44258;51.288;12.068;2024-03-23T05:25:13;99315.78;;;11.68;73.47
58471;BME280;44258;51.288;12.068;2024-03-23T05:27:41;99296.75;;;11.47;73.63
58471;BME280;44258;51.288;12.068;2024-03-23T05:30:07;99313.56;;;11.03;76.32
58471;BME280;44258;51.288;12.068;2024-03-23T05:32:37;99323.97;;;10.83;77.97
58471;BME280;44258;51.288;12.068;2024-03-23T05:35:06;99311.09;;;11.24;76.48
58471;BME280;44258;51.288;12.068;2024-03-23T05:37:33;99284.03;;;11.49;74.13
58471;BME280;44258;51.288;12.068;2024-03-23T05:39:59;99265.22;;;11.61;73.65
58471;BME280;44258;51.288;12.068;2024-03-23T05:42:25;99270.25;;;11.65;73.44
58471;BME280;44258;51.288;12.068;2024-03-23T05:44:52;99267.69;;;11.75;72.96
58471;BME280;44258;51.288;12.068;2024-03-23T05:47:19;99271.56;;;11.48;73.95
58471;BME280;44258;51.288;12.068;2024-03-23T05:49:46;99277.41;;;11.42;73.90
58471;BME280;44258;51.288;12.068;2024-03-23T05:52:13;99269.94;;;11.46;73.97
58471;BME280;44258;51.288;12.068;2024-03-23T05:54:39;99267.59;;;11.30;74.25
58471;BME280;44258;51.288;12.068;2024-03-23T05:57:06;99268.13;;;11.46;73.62
58471;BME280;44258;51.288;12.068;2024-03-23T05:59:32;99250.34;;;11.44;74.00
58471;BME280;44258;51.288;12.068;2024-03-23T06:01:59;99252.19;;;11.32;74.97
58471;BME280;44258;51.288;12.068;2024-03-23T06:04:25;99249.25;;;11.00;76.09
58471;BME280;44258;51.288;12.068;2024-03-23T06:06:56;99236.56;;;11.13;75.27
58471;BME280;44258;51.288;12.068;2024-03-23T06:09:23;99233.72;;;11.03;75.67
58471;BME280;44258;51.288;12.068;2024-03-23T06:11:49;99226.56;;;10.91;76.73
58471;BME280;44258;51.288;12.068;2024-03-23T06:14:15;99220.00;;;10.71;76.66
58471;BME280;44258;51.288;12.068;2024-03-23T06:16:41;99222.22;;;10.77;77.23
58471;BME280;44258;51.288;12.068;2024-03-23T06:19:07;99223.50;;;10.84;76.82
58471;BME280;44258;51.288;12.068;2024-03-23T06:21:34;99210.16;;;10.83;77.04
58471;BME280;44258;51.288;12.068;2024-03-23T06:24:01;99207.44;;;10.59;78.14
58471;BME280;44258;51.288;12.068;2024-03-23T06:26:27;99197.00;;;10.67;77.73
58471;BME280;44258;51.288;12.068;2024-03-23T06:28:53;99202.47;;;10.41;78.87
58471;BME280;44258;51.288;12.068;2024-03-23T06:31:19;99190.31;;;10.35;79.34
58471;BME280;44258;51.288;12.068;2024-03-23T06:33:45;99193.06;;;10.23;80.05
58471;BME280;44258;51.288;12.068;2024-03-23T06:36:12;99197.44;;;10.24;80.17
58471;BME280;44258;51.288;12.068;2024-03-23T06:38:37;99191.63;;;10.30;79.31
58471;BME280;44258;51.288;12.068;2024-03-23T06:41:06;99182.66;;;10.42;78.67
58471;BME280;44258;51.288;12.068;2024-03-23T06:43:32;99172.75;;;10.19;79.86
58471;BME280;44258;51.288;12.068;2024-03-23T06:45:59;99169.38;;;10.04;80.94
58471;BME280;44258;51.288;12.068;2024-03-23T06:48:24;99164.47;;;9.98;80.62
58471;BME280;44258;51.288;12.068;2024-03-23T06:50:55;99160.63;;;10.13;79.69
58471;BME280;44258;51.288;12.068;2024-03-23T06:53:22;99167.66;;;10.03;79.74
58471;BME280;44258;51.288;12.068;2024-03-23T06:55:51;99150.66;;;9.52;83.06
58471;BME280;44258;51.288;12.068;2024-03-23T06:58:19;99159.88;;;9.23;85.33
58471;BME280;44258;51.288;12.068;2024-03-23T07:00:46;99166.56;;;9.43;84.72
58471;BME280;44258;51.288;12.068;2024-03-23T07:03:11;99168.81;;;9.49;84.43
58471;BME280;44258;51.288;12.068;2024-03-23T07:05:38;99166.19;;;9.73;82.64
58471;BME280;44258;51.288;12.068;2024-03-23T07:08:04;99143.78;;;9.48;84.09
58471;BME280;44258;51.288;12.068;2024-03-23T07:10:31;99140.06;;;8.72;88.56
58471;BME280;44258;51.288;12.068;2024-03-23T07:12:57;99166.84;;;8.18;91.55
58471;BME280;44258;51.288;12.068;2024-03-23T07:15:26;99200.75;;;8.73;89.37
58471;BME280;44258;51.288;12.068;2024-03-23T07:17:51;99225.31;;;8.80;86.37
58471;BME280;44258;51.288;12.068;2024-03-23T07:20:18;99216.72;;;8.75;85.26
58471;BME280;44258;51.288;12.068;2024-03-23T07:22:45;99187.13;;;8.22;86.27
58471;BME280;44258;51.288;12.068;2024-03-23T07:25:12;99204.00;;;7.67;87.80
58471;BME280;44258;51.288;12.068;2024-03-23T07:27:38;99242.50;;;7.05;89.76
58471;BME280;44258;51.288;12.068;2024-03-23T07:30:06;99260.75;;;7.13;88.81
58471;BME280;44258;51.288;12.068;2024-03-23T07:32:33;99254.81;;;7.52;85.43
58471;BME280;44258;51.288;12.068;2024-03-23T07:35:00;99256.78;;;7.34;85.70
58471;BME280;44258;51.288;12.068;2024-03-23T07:37:25;99265.91;;;7.16;85.95
58471;BME280;44258;51.288;12.068;2024-03-23T07:39:52;99277.38;;;7.18;86.78
58471;BME280;44258;51.288;12.068;2024-03-23T07:42:18;99275.81;;;6.84;84.76
58471;BME280;44258;51.288;12.068;2024-03-23T07:44:44;99287.38;;;6.68;84.47
58471;BME280;44258;51.288;12.068;2024-03-23T07:47:14;99277.88;;;6.94;84.22
58471;BME280;44258;51.288;12.068;2024-03-23T07:49:41;99290.25;;;7.11;82.66
58471;BME280;44258;51.288;12.068;2024-03-23T07:52:08;99293.91;;;6.79;82.66
58471;BME280;44258;51.288;12.068;2024-03-23T07:54:33;99289.53;;;6.46;82.50
58471;BME280;44258;51.288;12.068;2024-03-23T07:57:00;99283.84;;;6.36;81.28
58471;BME280;44258;51.288;12.068;2024-03-23T07:59:25;99284.91;;;6.00;83.11
58471;BME280;44258;51.288;12.068;2024-03-23T08:01:52;99289.50;;;6.14;82.62
58471;BME280;44258;51.288;12.068;2024-03-23T08:04:17;99296.09;;;5.91;84.82
58471;BME280;44258;51.288;12.068;2024-03-23T08:06:45;99297.94;;;6.22;83.00
58471;BME280;44258;51.288;12.068;2024-03-23T08:09:10;99283.56;;;6.25;81.90
58471;BME280;44258;51.288;12.068;2024-03-23T08:11:38;99297.44;;;6.16;83.01
58471;BME280;44258;51.288;12.068;2024-03-23T08:14:04;99313.72;;;6.27;81.49
58471;BME280;44258;51.288;12.068;2024-03-23T08:16:31;99324.59;;;6.40;79.24
58471;BME280;44258;51.288;12.068;2024-03-23T08:18:59;99332.66;;;6.22;79.41
58471;BME280;44258;51.288;12.068;2024-03-23T08:21:26;99344.63;;;6.31;79.46
58471;BME280;44258;51.288;12.068;2024-03-23T08:23:55;99343.69;;;5.99;80.86
58471;BME280;44258;51.288;12.068;2024-03-23T08:26:21;99361.94;;;6.24;80.25
58471;BME280;44258;51.288;12.068;2024-03-23T08:28:47;99375.44;;;6.21;79.07
58471;BME280;44258;51.288;12.068;2024-03-23T08:31:14;99387.97;;;6.36;79.94
58471;BME280;44258;51.288;12.068;2024-03-23T08:33:40;99406.78;;;6.50;78.82
58471;BME280;44258;51.288;12.068;2024-03-23T08:36:09;99418.13;;;6.05;79.80
58471;BME280;44258;51.288;12.068;2024-03-23T08:38:37;99428.78;;;6.05;79.69
58471;BME280;44258;51.288;12.068;2024-03-23T08:41:07;99434.50;;;6.14;77.39
58471;BME280;44258;51.288;12.068;2024-03-23T08:43:35;99433.00;;;6.26;78.40
58471;BME280;44258;51.288;12.068;2024-03-23T08:46:05;99428.28;;;6.31;77.36
58471;BME280;44258;51.288;12.068;2024-03-23T08:48:31;99435.09;;;6.37;77.11
58471;BME280;44258;51.288;12.068;2024-03-23T08:51:02;99438.84;;;6.33;78.15
58471;BME280;44258;51.288;12.068;2024-03-23T08:53:29;99443.59;;;6.10;78.40
58471;BME280;44258;51.288;12.068;2024-03-23T08:55:57;99461.88;;;6.36;77.85
58471;BME280;44258;51.288;12.068;2024-03-23T08:58:25;99466.94;;;6.58;77.39
58471;BME280;44258;51.288;12.068;2024-03-23T09:00:53;99473.19;;;6.74;76.69
58471;BME280;44258;51.288;12.068;2024-03-23T09:03:21;99477.19;;;6.99;75.91
58471;BME280;44258;51.288;12.068;2024-03-23T09:05:51;99481.16;;;7.07;74.91
58471;BME280;44258;51.288;12.068;2024-03-23T09:08:16;99475.06;;;7.21;74.17
58471;BME280;44258;51.288;12.068;2024-03-23T09:10:43;99463.22;;;7.09;73.88
58471;BME280;44258;51.288;12.068;2024-03-23T09:13:09;99459.72;;;6.76;75.21
58471;BME280;44258;51.288;12.068;2024-03-23T09:15:46;99470.09;;;6.82;76.69
58471;BME280;44258;51.288;12.068;2024-03-23T09:18:11;99471.06;;;7.12;74.81
58471;BME280;44258;51.288;12.068;2024-03-23T09:20:38;99472.19;;;6.92;75.55
58471;BME280;44258;51.288;12.068;2024-03-23T09:23:04;99507.94;;;6.74;76.55
58471;BME280;44258;51.288;12.068;2024-03-23T09:25:30;99524.31;;;6.84;76.97
58471;BME280;44258;51.288;12.068;2024-03-23T09:27:58;99545.66;;;7.01;75.66
58471;BME280;44258;51.288;12.068;2024-03-23T09:30:24;99544.88;;;6.99;76.14
58471;BME280;44258;51.288;12.068;2024-03-23T09:32:52;99563.28;;;7.21;75.70
58471;BME280;44258;51.288;12.068;2024-03-23T09:35:18;99557.47;;;6.97;76.25
58471;BME280;44258;51.288;12.068;2024-03-23T09:37:45;99558.94;;;7.03;76.88
58471;BME280;44258;51.288;12.068;2024-03-23T09:40:11;99558.72;;;6.90;77.39
58471;BME280;44258;51.288;12.068;2024-03-23T09:42:38;99556.06;;;7.39;75.49
58471;BME280;44258;51.288;12.068;2024-03-23T09:45:04;99566.94;;;7.36;74.09
58471;BME280;44258;51.288;12.068;2024-03-23T09:47:32;99578.38;;;7.22;75.68
58471;BME280;44258;51.288;12.068;2024-03-23T09:49:59;99578.44;;;7.21;74.25
58471;BME280;44258;51.288;12.068;2024-03-23T09:52:26;99595.41;;;7.37;74.15
58471;BME280;44258;51.288;12.068;2024-03-23T09:54:52;99601.78;;;7.34;72.68
58471;BME280;44258;51.288;12.068;2024-03-23T09:57:19;99608.69;;;7.54;72.31
58471;BME280;44258;51.288;12.068;2024-03-23T09:59:45;99615.53;;;7.11;71.47
58471;BME280;44258;51.288;12.068;2024-03-23T10:02:12;99613.72;;;6.94;72.31
58471;BME280;44258;51.288;12.068;2024-03-23T10:04:42;99605.03;;;6.90;72.90
58471;BME280;44258;51.288;12.068;2024-03-23T10:07:15;99607.59;;;6.92;73.85
58471;BME280;44258;51.288;12.068;2024-03-23T10:09:42;99615.47;;;6.95;73.24
58471;BME280;44258;51.288;12.068;2024-03-23T10:12:10;99630.28;;;6.85;73.72
58471;BME280;44258;51.288;12.068;2024-03-23T10:14:36;99637.91;;;6.92;73.17
58471;BME280;44258;51.288;12.068;2024-03-23T10:17:15;99639.22;;;7.01;72.41
58471;BME280;44258;51.288;12.068;2024-03-23T10:19:46;99656.50;;;7.11;73.37
58471;BME280;44258;51.288;12.068;2024-03-23T10:22:18;99656.25;;;7.16;73.05
58471;BME280;44258;51.288;12.068;2024-03-23T10:24:44;99672.66;;;7.26;72.85
58471;BME280;44258;51.288;12.068;2024-03-23T10:27:15;99668.69;;;7.50;71.97
58471;BME280;44258;51.288;12.068;2024-03-23T10:29:41;99677.28;;;7.40;72.06
58471;BME280;44258;51.288;12.068;2024-03-23T10:32:10;99677.88;;;7.45;73.09
58471;BME280;44258;51.288;12.068;2024-03-23T10:34:36;99665.06;;;7.51;73.42
58471;BME280;44258;51.288;12.068;2024-03-23T10:37:03;99689.81;;;7.22;74.11
58471;BME280;44258;51.288;12.068;2024-03-23T10:39:33;99689.34;;;7.13;75.34
58471;BME280;44258;51.288;12.068;2024-03-23T10:42:02;99693.22;;;7.25;74.57
58471;BME280;44258;51.288;12.068;2024-03-23T10:44:29;99691.44;;;7.42;74.37
58471;BME280;44258;51.288;12.068;2024-03-23T10:46:57;99697.00;;;7.54;73.95
58471;BME280;44258;51.288;12.068;2024-03-23T10:49:30;99696.00;;;7.40;74.93
58471;BME280;44258;51.288;12.068;2024-03-23T10:51:58;99696.72;;;7.59;74.64
58471;BME280;44258;51.288;12.068;2024-03-23T10:54:25;99700.09;;;7.80;74.11
58471;BME280;44258;51.288;12.068;2024-03-23T10:56:56;99706.50;;;7.93;73.70
58471;BME280;44258;51.288;12.068;2024-03-23T10:59:23;99712.63;;;7.96;71.58
58471;BME280;44258;51.288;12.068;2024-03-23T11:01:54;99714.63;;;8.08;71.18
58471;BME280;44258;51.288;12.068;2024-03-23T11:04:30;99708.84;;;8.00;71.46
58471;BME280;44258;51.288;12.068;2024-03-23T11:07:00;99696.75;;;7.92;71.95
58471;BME280;44258;51.288;12.068;2024-03-23T11:09:38;99701.22;;;7.92;71.01
58471;BME280;44258;51.288;12.068;2024-03-23T11:12:17;99694.22;;;7.89;70.76
58471;BME280;44258;51.288;12.068;2024-03-23T11:14:52;99699.09;;;8.14;70.35
58471;BME280;44258;51.288;12.068;2024-03-23T11:17:20;99697.78;;;8.38;69.33
58471;BME280;44258;51.288;12.068;2024-03-23T11:19:53;99699.25;;;8.27;68.33
58471;BME280;44258;51.288;12.068;2024-03-23T11:22:41;99700.53;;;8.52;68.71
58471;BME280;44258;51.288;12.068;2024-03-23T11:25:15;99704.13;;;8.67;69.49
58471;BME280;44258;51.288;12.068;2024-03-23T11:27:44;99712.91;;;8.85;69.49
58471;BME280;44258;51.288;12.068;2024-03-23T11:30:17;99711.59;;;8.92;69.46
58471;BME280;44258;51.288;12.068;2024-03-23T11:32:45;99704.75;;;9.02;68.81
58471;BME280;44258;51.288;12.068;2024-03-23T11:35:24;99682.63;;;9.13;68.62
58471;BME280;44258;51.288;12.068;2024-03-23T11:38:05;99684.88;;;9.35;68.36
58471;BME280;44258;51.288;12.068;2024-03-23T11:40:32;99688.28;;;9.53;67.31
58471;BME280;44258;51.288;12.068;2024-03-23T11:43:03;99687.31;;;9.68;66.33
58471;BME280;44258;51.288;12.068;2024-03-23T11:45:34;99688.03;;;9.99;66.79
58471;BME280;44258;51.288;12.068;2024-03-23T11:48:04;99681.19;;;10.22;65.99
58471;BME280;44258;51.288;12.068;2024-03-23T11:50:30;99681.22;;;10.08;64.19
58471;BME280;44258;51.288;12.068;2024-03-23T11:53:12;99676.03;;;10.05;64.33
58471;BME280;44258;51.288;12.068;2024-03-23T11:55:46;99678.81;;;10.03;64.13
58471;BME280;44258;51.288;12.068;2024-03-23T11:58:14;99671.75;;;10.29;64.28
58471;BME280;44258;51.288;12.068;2024-03-23T12:00:42;99668.06;;;10.45;65.26
58471;BME280;44258;51.288;12.068;2024-03-23T12:03:09;99666.19;;;10.72;64.27
58471;BME280;44258;51.288;12.068;2024-03-23T12:05:36;99664.22;;;10.49;62.52
58471;BME280;44258;51.288;12.068;2024-03-23T12:08:24;99661.47;;;10.63;64.97
58471;BME280;44258;51.288;12.068;2024-03-23T12:10:54;99662.19;;;10.80;63.93
58471;BME280;44258;51.288;12.068;2024-03-23T12:13:32;99657.28;;;11.12;64.34
58471;BME280;44258;51.288;12.068;2024-03-23T12:16:13;99646.84;;;11.20;62.91
58471;BME280;44258;51.288;12.068;2024-03-23T12:18:40;99646.72;;;11.47;61.13
58471;BME280;44258;51.288;12.068;2024-03-23T12:21:07;99646.53;;;11.50;61.04
58471;BME280;44258;51.288;12.068;2024-03-23T12:23:38;99647.78;;;11.58;60.59
58471;BME280;44258;51.288;12.068;2024-03-23T12:26:10;99649.16;;;11.76;60.51
58471;BME280;44258;51.288;12.068;2024-03-23T12:28:37;99634.28;;;11.83;60.17
58471;BME280;44258;51.288;12.068;2024-03-23T12:31:04;99639.41;;;12.12;58.91
58471;BME280;44258;51.288;12.068;2024-03-23T12:33:29;99626.00;;;11.73;57.39
58471;BME280;44258;51.288;12.068;2024-03-23T12:35:56;99629.84;;;12.08;57.59
58471;BME280;44258;51.288;12.068;2024-03-23T12:38:22;99617.72;;;12.01;55.75
58471;BME280;44258;51.288;12.068;2024-03-23T12:40:49;99615.94;;;12.01;55.88
58471;BME280;44258;51.288;12.068;2024-03-23T12:43:15;99611.94;;;11.94;55.48
58471;BME280;44258;51.288;12.068;2024-03-23T12:45:45;99607.69;;;12.03;55.76
58471;BME280;44258;51.288;12.068;2024-03-23T12:48:11;99600.09;;;12.09;54.71
58471;BME280;44258;51.288;12.068;2024-03-23T12:50:38;99609.66;;;12.01;53.15
58471;BME280;44258;51.288;12.068;2024-03-23T12:53:04;99590.16;;;12.10;53.25
58471;BME280;44258;51.288;12.068;2024-03-23T12:55:31;99600.63;;;11.89;51.91
58471;BME280;44258;51.288;12.068;2024-03-23T12:57:56;99604.75;;;11.82;51.83
58471;BME280;44258;51.288;12.068;2024-03-23T13:00:23;99594.84;;;11.82;53.13
58471;BME280;44258;51.288;12.068;2024-03-23T13:02:50;99600.94;;;12.10;53.18
58471;BME280;44258;51.288;12.068;2024-03-23T13:05:16;99599.34;;;12.07;52.51
58471;BME280;44258;51.288;12.068;2024-03-23T13:07:42;99594.00;;;11.82;52.92
58471;BME280;44258;51.288;12.068;2024-03-23T13:10:09;99592.22;;;11.93;54.54
58471;BME280;44258;51.288;12.068;2024-03-23T13:12:35;99581.53;;;11.68;51.79
58471;BME280;44258;51.288;12.068;2024-03-23T13:15:03;99589.09;;;11.63;50.65
58471;BME280;44258;51.288;12.068;2024-03-23T13:17:29;99576.88;;;11.70;51.61
58471;BME280;44258;51.288;12.068;2024-03-23T13:19:59;99574.16;;;11.83;51.76
58471;BME280;44258;51.288;12.068;2024-03-23T13:22:25;99578.47;;;11.85;52.73
58471;BME280;44258;51.288;12.068;2024-03-23T13:24:52;99575.25;;;11.80;53.28
58471;BME280;44258;51.288;12.068;2024-03-23T13:27:18;99582.50;;;12.04;52.45
58471;BME280;44258;51.288;12.068;2024-03-23T13:29:45;99582.69;;;11.77;52.64
58471;BME280;44258;51.288;12.068;2024-03-23T13:32:12;99591.34;;;11.69;52.91
58471;BME280;44258;51.288;12.068;2024-03-23T13:34:39;99595.59;;;11.34;53.79
58471;BME280;44258;51.288;12.068;2024-03-23T13:37:09;99606.03;;;11.13;54.05
58471;BME280;44258;51.288;12.068;2024-03-23T13:39:36;99625.19;;;10.83;56.17
58471;BME280;44258;51.288;12.068;2024-03-23T13:42:01;99611.69;;;10.30;59.37
58471;BME280;44258;51.288;12.068;2024-03-23T13:44:29;99603.56;;;10.18;59.99
58471;BME280;44258;51.288;12.068;2024-03-23T13:46:57;99599.97;;;10.31;59.76
58471;BME280;44258;51.288;12.068;2024-03-23T13:49:25;99600.78;;;10.59;59.45
58471;BME280;44258;51.288;12.068;2024-03-23T13:51:52;99600.22;;;10.94;59.03